Time;durP1;ratioP1;P1;durP2;ratioP2;P2;SDS_P1;SDS_P2;PMS_P1;PMS_P2;Temp;Humidity;BMP_temperature;BMP_pressure;BME280_temperature;BME280_humidity;BME280_pressure;Samples;Min_cycle;Max_cycle;Signal;HPM_P1;HPM_P2
2022/03/09 00:02:25;;;;;;;24.20;10.40;;;;;-3.30;97503.40;;;;110741;1250;41993;-64
2022/03/09 00:04:55;;;;;;;24.30;11.60;;;;;-3.40;97497.60;;;;110625;1250;41258;-65
2022/03/09 00:07:27;;;;;;;19.80;10.70;;;;;-3.40;97501.20;;;;110607;1253;41166;-65
2022/03/09 00:09:56;;;;;;;23.90;11.20;;;;;-3.42;97502.00;;;;110533;1252;41140;-67
2022/03/09 00:12:27;;;;;;;25.40;11.80;;;;;-3.50;97508.60;;;;110689;1251;42427;-64
2022/03/09 00:14:57;;;;;;;20.80;10.40;;;;;-3.56;97513.00;;;;110768;1251;41218;-62
2022/03/09 00:17:28;;;;;;;23.30;10.50;;;;;-3.60;97511.40;;;;110653;1251;41155;-65
2022/03/09 00:19:57;;;;;;;25.40;11.70;;;;;-3.68;97518.00;;;;110497;1253;41162;-65
2022/03/09 00:22:29;;;;;;;23.40;10.90;;;;;-3.70;97511.00;;;;110574;1251;41612;-65
2022/03/09 00:24:59;;;;;;;23.10;11.50;;;;;-3.74;97510.40;;;;110763;1250;42015;-65
2022/03/09 00:27:31;;;;;;;24.20;10.70;;;;;-3.80;97513.40;;;;110741;1250;41139;-64
2022/03/09 00:30:01;;;;;;;29.10;12.10;;;;;-3.80;97503.80;;;;110637;1251;41391;-64
2022/03/09 00:32:32;;;;;;;33.30;16.10;;;;;-3.82;97504.40;;;;110654;1250;41694;-65
2022/03/09 00:35:02;;;;;;;41.70;20.00;;;;;-4.00;97503.60;;;;110888;1250;41260;-66
2022/03/09 00:37:34;;;;;;;33.90;17.30;;;;;-4.18;97504.40;;;;110798;1250;41179;-64
2022/03/09 00:40:04;;;;;;;39.40;17.90;;;;;-4.22;97510.20;;;;110623;1253;41267;-65
2022/03/09 00:42:39;;;;;;;26.10;13.00;;;;;-4.30;97510.20;;;;110789;1251;41373;-64
2022/03/09 00:45:09;;;;;;;22.70;11.60;;;;;-4.34;97505.60;;;;110613;1251;41271;-63
2022/03/09 00:47:40;;;;;;;24.60;11.10;;;;;-4.40;97500.20;;;;110635;1251;41190;-64
2022/03/09 00:50:10;;;;;;;24.70;12.20;;;;;-4.40;97506.80;;;;110882;1248;41276;-63
2022/03/09 00:52:39;;;;;;;22.40;12.10;;;;;-4.40;97508.80;;;;110820;1250;41147;-66
2022/03/09 00:55:09;;;;;;;27.10;12.50;;;;;-4.40;97512.20;;;;110785;1251;41603;-65
2022/03/09 00:57:40;;;;;;;24.40;12.90;;;;;-4.40;97515.80;;;;110884;1250;41189;-64
2022/03/09 01:00:10;;;;;;;27.40;12.50;;;;;-4.40;97517.00;;;;110773;1250;41673;-64
2022/03/09 01:02:43;;;;;;;24.70;12.50;;;;;-4.40;97516.80;;;;110838;1250;41175;-65
2022/03/09 01:05:13;;;;;;;;;;;;;-4.40;97514.80;;;;110811;1250;41574;-66
2022/03/09 01:07:42;;;;;;;23.20;10.90;;;;;-4.42;97509.20;;;;110711;1250;41192;-63
2022/03/09 01:10:13;;;;;;;28.50;14.30;;;;;-4.40;97519.60;;;;110609;1251;41486;-64
2022/03/09 01:12:45;;;;;;;27.20;13.40;;;;;-4.42;97512.60;;;;110609;1250;42584;-64
2022/03/09 01:15:15;;;;;;;36.80;17.10;;;;;-4.40;97510.40;;;;110835;1250;41926;-64
2022/03/09 01:17:46;;;;;;;30.00;15.50;;;;;-4.40;97516.80;;;;110714;1250;41515;-64
2022/03/09 01:20:16;;;;;;;33.40;14.80;;;;;-4.40;97517.60;;;;110620;1250;42529;-64
2022/03/09 01:22:46;;;;;;;27.60;14.30;;;;;-4.30;97518.20;;;;110691;1251;41173;-63
2022/03/09 01:25:16;;;;;;;25.80;13.40;;;;;-4.26;97519.80;;;;110946;1250;41816;-64
2022/03/09 01:27:49;;;;;;;23.40;12.00;;;;;-4.20;97519.60;;;;110704;1248;41155;-62
2022/03/09 01:30:18;;;;;;;29.70;15.50;;;;;-4.20;97520.60;;;;110713;1251;41655;-65
2022/03/09 01:32:49;;;;;;;;;;;;;-4.10;97521.20;;;;110772;1250;41534;-65
2022/03/09 01:35:20;;;;;;;27.20;11.90;;;;;-4.10;97525.40;;;;110787;1250;41933;-62
2022/03/09 01:37:51;;;;;;;23.00;12.10;;;;;-4.10;97526.00;;;;110807;1252;41152;-64
2022/03/09 01:40:21;;;;;;;35.30;16.10;;;;;-4.12;97530.00;;;;110646;1252;41286;-63
2022/03/09 01:42:52;;;;;;;;;;;;;-4.20;97532.40;;;;110838;1250;41450;-64
2022/03/09 01:45:22;;;;;;;29.80;14.80;;;;;-4.20;97532.40;;;;110828;1250;41141;-63
2022/03/09 01:47:55;;;;;;;30.00;13.80;;;;;-4.20;97528.80;;;;110862;1250;41184;-62
2022/03/09 01:50:26;;;;;;;31.50;14.90;;;;;-4.20;97531.80;;;;110845;1249;41153;-64
2022/03/09 01:52:56;;;;;;;30.30;13.00;;;;;-4.14;97529.80;;;;110729;1250;41269;-64
2022/03/09 01:55:26;;;;;;;25.00;12.10;;;;;-4.10;97524.40;;;;110857;1250;41327;-64
2022/03/09 01:57:57;;;;;;;26.80;11.50;;;;;-4.10;97518.80;;;;110929;1250;41142;-63
2022/03/09 02:00:27;;;;;;;20.50;10.70;;;;;-4.00;97522.60;;;;110750;1251;42378;-65
2022/03/09 02:02:58;;;;;;;24.20;11.60;;;;;-3.94;97517.00;;;;110844;1251;41261;-65
2022/03/09 02:05:29;;;;;;;29.50;13.80;;;;;-3.90;97518.40;;;;110772;1250;41213;-64
2022/03/09 02:10:50;;;;;;;29.20;12.80;;;;;-3.80;97513.80;;;;110807;1250;41155;-64
2022/03/09 02:13:20;;;;;;;25.70;11.70;;;;;-3.78;97519.60;;;;110720;1251;42116;-62
2022/03/09 02:15:50;;;;;;;24.40;12.40;;;;;-3.70;97516.20;;;;110926;1250;41146;-62
2022/03/09 02:18:20;;;;;;;23.60;11.80;;;;;-3.60;97513.60;;;;110941;1249;42390;-65
2022/03/09 02:20:53;;;;;;;27.40;12.80;;;;;-3.58;97513.20;;;;110853;1250;41682;-64
2022/03/09 02:23:23;;;;;;;34.60;13.00;;;;;-3.50;97500.40;;;;110898;1250;41482;-64
2022/03/09 02:25:54;;;;;;;23.50;11.50;;;;;-3.50;97508.80;;;;110642;1251;41623;-64
2022/03/09 02:28:24;;;;;;;26.80;11.80;;;;;-3.40;97509.00;;;;110580;1252;41624;-64
2022/03/09 02:30:56;;;;;;;30.20;12.60;;;;;-3.40;97506.20;;;;110611;1250;41616;-64
2022/03/09 02:33:26;;;;;;;27.60;14.50;;;;;-3.46;97507.00;;;;110645;1252;41162;-63
2022/03/09 02:35:56;;;;;;;30.00;14.60;;;;;-3.64;97516.80;;;;110874;1250;41265;-65
2022/03/09 02:38:27;;;;;;;26.20;12.50;;;;;-3.70;97521.20;;;;110819;1250;41868;-64
2022/03/09 02:40:57;;;;;;;26.20;12.50;;;;;-3.70;97519.80;;;;110862;1250;41532;-64
2022/03/09 02:43:28;;;;;;;30.00;14.30;;;;;-3.70;97519.60;;;;110762;1250;41162;-62
2022/03/09 02:45:58;;;;;;;27.10;13.10;;;;;-3.70;97520.80;;;;110270;1250;489230;-65
2022/03/09 02:48:29;;;;;;;24.50;11.90;;;;;-3.70;97514.80;;;;110590;1251;41147;-62
2022/03/09 02:51:00;;;;;;;27.80;12.60;;;;;-3.70;97509.40;;;;110804;1250;41942;-64
2022/03/09 02:53:30;;;;;;;30.00;13.90;;;;;-3.60;97515.40;;;;110675;1251;41616;-62
2022/03/09 02:56:00;;;;;;;24.60;12.90;;;;;-3.60;97513.40;;;;110759;1250;41609;-65
2022/03/09 02:58:30;;;;;;;29.60;12.30;;;;;-3.60;97504.00;;;;110944;1249;41143;-64
2022/03/09 03:01:00;;;;;;;25.80;11.80;;;;;-3.50;97514.60;;;;110610;1252;41166;-63
2022/03/09 03:03:31;;;;;;;26.30;12.40;;;;;-3.50;97512.00;;;;110682;1251;41833;-65
2022/03/09 03:06:00;;;;;;;26.20;12.50;;;;;-3.50;97514.80;;;;110685;1250;41262;-62
2022/03/09 03:08:31;;;;;;;24.20;12.40;;;;;-3.40;97521.00;;;;110924;1249;41563;-64
2022/03/09 03:11:01;;;;;;;31.40;13.10;;;;;-3.40;97511.20;;;;110843;1249;42186;-64
2022/03/09 03:13:31;;;;;;;26.00;11.90;;;;;-3.30;97510.00;;;;110640;1250;41273;-64
2022/03/09 03:16:02;;;;;;;24.50;12.00;;;;;-3.30;97513.00;;;;110825;1250;41175;-64
2022/03/09 03:18:32;;;;;;;27.20;12.60;;;;;-3.26;97510.40;;;;110826;1249;41270;-65
2022/03/09 03:21:02;;;;;;;27.10;13.10;;;;;-3.20;97512.00;;;;110696;1251;40914;-63
2022/03/09 03:23:33;;;;;;;27.20;12.80;;;;;-3.20;97518.20;;;;110650;1250;41143;-63
2022/03/09 03:26:04;;;;;;;28.40;13.40;;;;;-3.12;97516.60;;;;110871;1250;41731;-63
2022/03/09 03:28:35;;;;;;;26.70;12.60;;;;;-3.10;97520.40;;;;110685;1252;42026;-65
2022/03/09 03:31:06;;;;;;;28.80;12.50;;;;;-3.10;97516.60;;;;110758;1250;42249;-66
2022/03/09 03:33:35;;;;;;;31.00;13.30;;;;;-3.10;97514.80;;;;110672;1252;41278;-64
2022/03/09 03:36:05;;;;;;;26.50;12.50;;;;;-3.04;97520.60;;;;110639;1248;42187;-64
2022/03/09 03:38:36;;;;;;;28.60;12.50;;;;;-3.00;97520.80;;;;110632;1251;41943;-65
2022/03/09 03:41:05;;;;;;;25.20;13.40;;;;;-3.00;97517.00;;;;110811;1247;41790;-61
2022/03/09 03:43:35;;;;;;;25.60;12.40;;;;;-3.00;97513.00;;;;110965;1250;41146;-63
2022/03/09 03:46:05;;;;;;;26.60;12.80;;;;;-2.94;97512.60;;;;110971;1250;42421;-65
2022/03/09 03:48:35;;;;;;;27.40;12.60;;;;;-2.90;97511.60;;;;110834;1250;41239;-63
2022/03/09 03:51:04;;;;;;;26.60;12.30;;;;;-2.90;97503.80;;;;110621;1251;41850;-65
2022/03/09 03:53:35;;;;;;;29.10;13.30;;;;;-2.90;97506.80;;;;110807;1250;41147;-64
2022/03/09 03:56:06;;;;;;;26.80;12.90;;;;;-2.90;97503.60;;;;110725;1250;41267;-64
2022/03/09 03:58:36;;;;;;;25.10;12.40;;;;;-2.90;97502.00;;;;110679;1250;41887;-64
2022/03/09 04:01:06;;;;;;;24.70;12.50;;;;;-2.80;97503.40;;;;110922;1250;41199;-62
2022/03/09 04:03:36;;;;;;;27.00;12.80;;;;;-2.80;97498.60;;;;111006;1248;42590;-65
2022/03/09 04:06:06;;;;;;;27.40;13.10;;;;;-2.80;97500.00;;;;110850;1249;42376;-65
2022/03/09 04:08:37;;;;;;;;;;;;;-2.80;97503.60;;;;110988;1247;41158;-66
2022/03/09 04:11:06;;;;;;;25.80;12.80;;;;;-2.80;97497.00;;;;110569;1253;41280;-64
2022/03/09 04:13:38;;;;;;;26.90;13.00;;;;;-2.74;97497.00;;;;110715;1250;42183;-65
2022/03/09 04:16:07;;;;;;;29.20;14.20;;;;;-2.70;97497.00;;;;110816;1249;41219;-64
2022/03/09 04:18:38;;;;;;;26.10;13.40;;;;;-2.70;97496.60;;;;110891;1251;41139;-63
2022/03/09 04:21:07;;;;;;;29.60;13.80;;;;;-2.80;97493.20;;;;110585;1252;41163;-63
2022/03/09 04:23:38;;;;;;;30.00;13.70;;;;;-2.80;97496.80;;;;110630;1250;41142;-65
2022/03/09 04:26:10;;;;;;;28.80;13.30;;;;;-2.80;97496.80;;;;110921;1248;42200;-65
2022/03/09 04:28:40;;;;;;;25.90;12.90;;;;;-2.80;97499.40;;;;110855;1250;41444;-64
2022/03/09 04:31:11;;;;;;;25.00;12.40;;;;;-2.70;97493.40;;;;110702;1250;41213;-64
2022/03/09 04:33:40;;;;;;;25.50;11.40;;;;;-2.70;97500.60;;;;110633;1251;41301;-62
2022/03/09 04:36:10;;;;;;;24.20;13.20;;;;;-2.70;97500.80;;;;110783;1248;41150;-65
2022/03/09 04:38:40;;;;;;;26.20;13.10;;;;;-2.62;97502.00;;;;110864;1247;41616;-64
2022/03/09 04:41:11;;;;;;;22.50;11.90;;;;;-2.60;97498.00;;;;111066;1247;41167;-63
2022/03/09 04:43:40;;;;;;;21.90;11.80;;;;;-2.60;97498.20;;;;110868;1250;41169;-63
2022/03/09 04:46:12;;;;;;;26.70;11.50;;;;;-2.60;97500.40;;;;110709;1250;41164;-62
2022/03/09 04:48:43;;;;;;;33.50;12.70;;;;;-2.54;97506.60;;;;110667;1250;41159;-63
2022/03/09 04:51:13;;;;;;;27.50;12.70;;;;;-2.50;97508.40;;;;110785;1250;41156;-64
2022/03/09 04:53:43;;;;;;;27.10;13.20;;;;;-2.50;97501.20;;;;110620;1250;42257;-64
2022/03/09 04:56:15;;;;;;;24.70;12.90;;;;;-2.50;97510.60;;;;110689;1251;41947;-64
2022/03/09 04:58:45;;;;;;;25.20;13.00;;;;;-2.50;97513.00;;;;110859;1250;41160;-65
2022/03/09 05:01:15;;;;;;;32.60;13.40;;;;;-2.50;97514.00;;;;110643;1251;41157;-63
2022/03/09 05:03:45;;;;;;;27.20;13.70;;;;;-2.50;97512.60;;;;110717;1250;41161;-64
2022/03/09 05:06:14;;;;;;;31.80;14.50;;;;;-2.48;97513.60;;;;110681;1250;42401;-64
2022/03/09 05:08:44;;;;;;;29.30;14.30;;;;;-2.48;97514.20;;;;110678;1250;41153;-63
2022/03/09 05:11:13;;;;;;;26.80;13.20;;;;;-2.48;97517.80;;;;110854;1250;42004;-64
2022/03/09 05:13:43;;;;;;;26.20;12.60;;;;;-2.46;97522.40;;;;110796;1251;41163;-64
2022/03/09 05:16:13;;;;;;;27.60;13.00;;;;;-2.40;97523.20;;;;110810;1250;41520;-64
2022/03/09 05:18:43;;;;;;;28.20;13.20;;;;;-2.40;97519.00;;;;110678;1251;41266;-64
2022/03/09 05:21:13;;;;;;;28.40;13.60;;;;;-2.40;97521.00;;;;110852;1251;40918;-61
2022/03/09 05:23:42;;;;;;;30.70;14.60;;;;;-2.40;97524.00;;;;110852;1250;41256;-62
2022/03/09 05:26:12;;;;;;;28.50;14.00;;;;;-2.40;97528.20;;;;110831;1251;41286;-63
2022/03/09 05:28:41;;;;;;;23.60;11.80;;;;;-2.36;97532.60;;;;110832;1249;41134;-61
2022/03/09 05:31:10;;;;;;;26.70;12.60;;;;;-2.30;97534.80;;;;110656;1251;41173;-61
2022/03/09 05:33:40;;;;;;;25.40;12.00;;;;;-2.30;97538.60;;;;110754;1251;41878;-62
2022/03/09 05:36:09;;;;;;;22.60;11.30;;;;;-2.22;97536.80;;;;110618;1251;41267;-62
2022/03/09 05:38:41;;;;;;;20.40;10.00;;;;;-2.20;97545.80;;;;110693;1250;41640;-61
2022/03/09 05:41:10;;;;;;;18.10;9.30;;;;;-2.10;97543.40;;;;110620;1251;41953;-63
2022/03/09 05:43:42;;;;;;;20.60;10.40;;;;;-2.10;97549.40;;;;110732;1250;41265;-64
2022/03/09 05:46:11;;;;;;;28.60;11.60;;;;;-2.00;97547.80;;;;110834;1247;41142;-63
2022/03/09 05:48:41;;;;;;;22.60;10.90;;;;;-2.00;97546.40;;;;110977;1247;41356;-64
2022/03/09 05:51:10;;;;;;;25.90;10.70;;;;;-1.90;97549.80;;;;110766;1250;43021;-63
2022/03/09 05:53:40;;;;;;;21.50;10.10;;;;;-1.90;97552.20;;;;110798;1249;41167;-63
2022/03/09 05:56:09;;;;;;;18.70;8.70;;;;;-1.80;97560.20;;;;110672;1250;41179;-64
2022/03/09 05:58:40;;;;;;;16.00;8.60;;;;;-1.72;97560.60;;;;110897;1250;41216;-63
2022/03/09 06:01:09;;;;;;;18.30;8.70;;;;;-1.70;97566.20;;;;110958;1250;41641;-64
2022/03/09 06:03:38;;;;;;;17.20;7.60;;;;;-1.70;97570.60;;;;110761;1250;41144;-64
2022/03/09 06:06:08;;;;;;;17.80;7.90;;;;;-1.68;97571.20;;;;110840;1248;41368;-63
2022/03/09 06:08:37;;;;;;;16.90;7.30;;;;;-1.64;97577.20;;;;110855;1250;41648;-64
2022/03/09 06:11:08;;;;;;;17.30;6.90;;;;;-1.60;97578.60;;;;110885;1249;41707;-62
2022/03/09 06:13:37;;;;;;;16.90;7.70;;;;;-1.50;97581.60;;;;110817;1250;41653;-65
2022/03/09 06:16:07;;;;;;;15.40;7.20;;;;;-1.50;97582.00;;;;110853;1250;41157;-64
2022/03/09 06:18:37;;;;;;;15.10;6.00;;;;;-1.40;97584.40;;;;110659;1250;41816;-64
2022/03/09 06:21:07;;;;;;;23.10;9.20;;;;;-1.30;97581.40;;;;110847;1250;41767;-63
2022/03/09 06:23:36;;;;;;;18.90;8.90;;;;;-1.20;97580.80;;;;110832;1250;41146;-65
2022/03/09 06:26:06;;;;;;;24.70;10.40;;;;;-1.12;97581.40;;;;110640;1251;41280;-64
2022/03/09 06:28:36;;;;;;;22.30;10.60;;;;;-1.00;97580.00;;;;110687;1250;41264;-64
2022/03/09 06:31:07;;;;;;;19.20;9.30;;;;;-0.90;97582.60;;;;110988;1250;42379;-67
2022/03/09 06:33:36;;;;;;;19.40;9.30;;;;;-0.72;97589.40;;;;110809;1249;41515;-64
2022/03/09 06:36:06;;;;;;;21.50;9.70;;;;;-0.60;97590.80;;;;110886;1248;41175;-63
2022/03/09 06:38:36;;;;;;;19.20;9.50;;;;;-0.42;97584.40;;;;110653;1250;41295;-63
2022/03/09 06:41:06;;;;;;;18.30;8.50;;;;;-0.30;97577.60;;;;110995;1248;41506;-64
2022/03/09 06:43:35;;;;;;;21.20;9.80;;;;;-0.08;97578.20;;;;110832;1250;41740;-64
2022/03/09 06:46:04;;;;;;;19.00;8.00;;;;;0.28;97573.40;;;;110745;1250;42642;-64
2022/03/09 06:48:34;;;;;;;17.60;7.90;;;;;0.74;97569.20;;;;111037;1247;41371;-64
2022/03/09 06:51:04;;;;;;;17.70;8.70;;;;;1.16;97565.60;;;;110848;1249;41463;-64
2022/03/09 06:53:37;;;;;;;17.40;7.80;;;;;1.50;97571.40;;;;110573;1250;41166;-63
2022/03/09 06:56:07;;;;;;;16.00;7.50;;;;;1.80;97568.80;;;;110724;1250;41171;-65
2022/03/09 06:58:37;;;;;;;14.40;7.20;;;;;2.14;97561.20;;;;110824;1250;42427;-67
2022/03/09 07:01:06;;;;;;;14.90;6.90;;;;;2.40;97562.00;;;;110692;1250;41263;-65
2022/03/09 07:03:36;;;;;;;14.60;6.20;;;;;2.70;97560.80;;;;110654;1251;41160;-63
2022/03/09 07:06:08;;;;;;;15.10;6.60;;;;;3.00;97560.60;;;;110726;1250;41751;-64
2022/03/09 07:08:38;;;;;;;12.80;5.10;;;;;3.10;97558.60;;;;110782;1249;42210;-63
2022/03/09 07:11:07;;;;;;;13.20;6.10;;;;;3.48;97563.60;;;;110547;1250;41147;-64
2022/03/09 07:13:38;;;;;;;14.80;6.90;;;;;3.70;97561.60;;;;110797;1250;41188;-64
2022/03/09 07:16:07;;;;;;;15.40;6.70;;;;;3.72;97559.00;;;;110765;1251;41746;-64
2022/03/09 07:18:37;;;;;;;13.60;6.30;;;;;3.80;97560.80;;;;110807;1250;41598;-66
2022/03/09 07:21:06;;;;;;;13.00;5.80;;;;;3.82;97558.40;;;;110952;1250;41638;-64
2022/03/09 07:23:36;;;;;;;13.20;5.80;;;;;3.90;97559.20;;;;110717;1251;41151;-64
2022/03/09 07:26:06;;;;;;;12.60;5.50;;;;;4.10;97562.60;;;;110830;1248;42263;-65
2022/03/09 07:28:37;;;;;;;12.70;5.20;;;;;4.10;97559.40;;;;110956;1248;41378;-64
2022/03/09 07:31:06;;;;;;;11.90;5.20;;;;;4.22;97561.20;;;;110659;1250;41946;-65
2022/03/09 07:33:36;;;;;;;11.50;5.10;;;;;4.44;97560.00;;;;110645;1252;41263;-67
2022/03/09 07:36:06;;;;;;;13.40;6.20;;;;;4.70;97554.80;;;;110909;1250;41146;-64
2022/03/09 07:38:38;;;;;;;;;;;;;4.90;97556.40;;;;110655;1251;41273;-67
2022/03/09 07:41:28;;;;;;;13.50;6.00;;;;;4.88;97553.00;;;;110711;1250;41149;-67
2022/03/09 07:43:58;;;;;;;13.30;5.80;;;;;4.90;97546.00;;;;110893;1250;41144;-67
2022/03/09 07:46:27;;;;;;;13.10;5.60;;;;;5.06;97550.40;;;;110592;1251;41481;-67
2022/03/09 07:48:56;;;;;;;11.30;4.90;;;;;5.30;97551.20;;;;110643;1250;41169;-66
2022/03/09 07:51:25;;;;;;;12.90;5.30;;;;;5.24;97546.40;;;;110726;1249;41220;-67
2022/03/09 07:53:54;;;;;;;11.40;4.90;;;;;5.08;97539.00;;;;110973;1250;41272;-66
2022/03/09 07:56:23;;;;;;;12.40;5.00;;;;;4.88;97540.20;;;;110935;1250;42541;-67
2022/03/09 07:58:53;;;;;;;9.40;4.60;;;;;5.00;97540.00;;;;110724;1251;41179;-67
2022/03/09 08:01:22;;;;;;;10.40;4.50;;;;;5.06;97543.80;;;;110669;1250;41148;-67
2022/03/09 08:03:51;;;;;;;10.60;4.40;;;;;5.26;97545.60;;;;110874;1250;41169;-66
2022/03/09 08:06:20;;;;;;;9.50;4.20;;;;;5.34;97541.60;;;;110763;1250;42220;-66
2022/03/09 08:08:50;;;;;;;11.50;4.70;;;;;5.14;97537.80;;;;110834;1250;41476;-67
2022/03/09 08:11:19;;;;;;;9.40;4.60;;;;;4.70;97534.00;;;;110813;1253;42593;-68
2022/03/09 08:13:48;;;;;;;10.10;4.20;;;;;4.70;97536.80;;;;110943;1250;41165;-69
2022/03/09 08:16:17;;;;;;;10.70;4.40;;;;;4.90;97535.00;;;;110920;1249;41264;-67
2022/03/09 08:18:46;;;;;;;8.20;3.50;;;;;4.92;97533.60;;;;110797;1250;41252;-67
2022/03/09 08:21:15;;;;;;;10.50;4.30;;;;;5.20;97532.80;;;;110807;1251;41266;-66
2022/03/09 08:23:45;;;;;;;10.20;4.30;;;;;5.20;97536.60;;;;110785;1250;41170;-65
2022/03/09 08:26:15;;;;;;;9.20;3.50;;;;;5.30;97534.60;;;;110837;1250;42702;-67
2022/03/09 08:28:44;;;;;;;10.60;4.50;;;;;5.70;97533.00;;;;110696;1251;41147;-67
2022/03/09 08:31:14;;;;;;;10.60;3.40;;;;;5.78;97536.00;;;;110787;1250;41633;-67
2022/03/09 08:33:44;;;;;;;13.00;4.80;;;;;6.30;97534.20;;;;110678;1250;41616;-68
2022/03/09 08:36:15;;;;;;;9.40;4.10;;;;;6.66;97530.80;;;;110848;1250;41484;-68
2022/03/09 08:38:44;;;;;;;10.10;4.50;;;;;7.06;97521.80;;;;110751;1250;41260;-67
2022/03/09 08:41:16;;;;;;;8.80;3.60;;;;;7.00;97518.20;;;;110751;1249;42369;-67
2022/03/09 08:43:46;;;;;;;7.30;3.00;;;;;7.02;97520.60;;;;110673;1250;41733;-67
2022/03/09 08:46:15;;;;;;;8.30;3.50;;;;;6.94;97519.00;;;;110761;1249;41155;-65
2022/03/09 08:48:45;;;;;;;8.20;3.20;;;;;7.78;97514.60;;;;110817;1248;42076;-67
2022/03/09 08:51:17;;;;;;;8.00;3.30;;;;;9.00;97503.40;;;;110947;1247;41299;-66
2022/03/09 08:53:47;;;;;;;9.00;3.00;;;;;10.76;97490.80;;;;110620;1250;41145;-67
2022/03/09 08:56:16;;;;;;;8.00;2.80;;;;;13.48;97504.40;;;;110617;1251;41423;-67
2022/03/09 08:58:45;;;;;;;8.00;2.90;;;;;14.58;97471.40;;;;110957;1249;41276;-66
2022/03/09 09:01:14;;;;;;;7.40;2.80;;;;;17.04;97486.20;;;;111051;1250;41260;-66
2022/03/09 09:04:03;;;;;;;8.60;3.00;;;;;16.78;97485.00;;;;111052;1251;41270;-67
2022/03/09 09:06:33;;;;;;;6.30;2.50;;;;;16.80;97456.20;;;;110869;1251;41259;-67
2022/03/09 09:09:01;;;;;;;6.90;2.90;;;;;19.74;97452.40;;;;110755;1251;41199;-68
2022/03/09 09:11:30;;;;;;;5.10;2.10;;;;;20.26;97447.00;;;;111057;1250;41933;-68
2022/03/09 09:14:00;;;;;;;6.60;2.60;;;;;22.50;97468.80;;;;111007;1250;41529;-68
2022/03/09 09:16:29;;;;;;;6.70;2.80;;;;;19.96;97473.60;;;;110850;1250;41147;-68
2022/03/09 09:18:58;;;;;;;5.90;2.40;;;;;18.22;97455.20;;;;110990;1250;41138;-68
2022/03/09 09:21:28;;;;;;;5.10;2.30;;;;;17.72;97485.00;;;;110770;1250;41395;-67
2022/03/09 09:23:57;;;;;;;6.70;2.20;;;;;15.44;97493.40;;;;110998;1250;41172;-68
2022/03/09 09:26:27;;;;;;;6.10;2.20;;;;;14.50;97503.40;;;;110845;1250;41255;-68
2022/03/09 09:29:16;;;;;;;5.60;2.20;;;;;13.38;97481.80;;;;110844;1250;41264;-65
2022/03/09 09:31:47;;;;;;;7.40;2.60;;;;;14.28;97499.40;;;;110648;1252;42363;-67
2022/03/09 09:34:16;;;;;;;6.50;2.50;;;;;12.28;97510.60;;;;110811;1250;41156;-67
2022/03/09 09:36:48;;;;;;;5.90;2.40;;;;;11.12;97517.60;;;;110616;1249;41525;-67
2022/03/09 09:39:18;;;;;;;4.80;2.20;;;;;10.66;97506.80;;;;110720;1250;41168;-68
2022/03/09 09:41:52;;;;;;;8.70;2.90;;;;;10.32;97529.00;;;;110961;1250;42053;-65
2022/03/09 09:44:23;;;;;;;6.40;2.50;;;;;9.00;97534.00;;;;110974;1250;41389;-67
2022/03/09 09:46:53;;;;;;;6.50;2.60;;;;;7.96;97546.40;;;;111058;1248;41945;-68
2022/03/09 09:49:26;;;;;;;;;;;;;7.78;97539.80;;;;111043;1247;42015;-68
2022/03/09 09:51:55;;;;;;;8.10;2.90;;;;;7.74;97547.40;;;;110932;1250;41166;-67
2022/03/09 09:54:24;;;;;;;6.00;2.60;;;;;6.82;97551.20;;;;110834;1251;41177;-66
2022/03/09 09:56:57;;;;;;;6.00;2.60;;;;;6.70;97542.40;;;;110777;1250;42349;-67
2022/03/09 09:59:27;;;;;;;5.00;2.20;;;;;6.96;97554.80;;;;110739;1251;42374;-68
2022/03/09 10:01:58;;;;;;;5.80;2.20;;;;;7.30;97554.20;;;;111125;1248;41839;-67
2022/03/09 10:04:27;;;;;;;5.10;2.20;;;;;7.60;97553.20;;;;111044;1249;41137;-67
2022/03/09 10:06:56;;;;;;;6.40;2.60;;;;;7.68;97563.00;;;;110970;1250;41476;-67
2022/03/09 10:09:35;;;;;;;7.70;2.70;;;;;7.10;97562.60;;;;111006;1250;41146;-68
2022/03/09 10:12:06;;;;;;;6.80;2.60;;;;;7.40;97560.80;;;;110742;1251;41381;-65
2022/03/09 10:14:53;;;;;;;5.70;2.20;;;;;7.20;97551.80;;;;110918;1250;41370;-68
2022/03/09 10:17:24;;;;;;;5.50;2.20;;;;;8.14;97546.00;;;;110961;1250;41286;-68
2022/03/09 10:19:57;;;;;;;5.10;2.20;;;;;11.48;97496.20;;;;110812;1250;41017;-68
2022/03/09 10:22:32;;;;;;;5.40;2.40;;;;;16.62;97483.40;;;;110910;1251;41135;-68
2022/03/09 10:25:19;;;;;;;4.70;2.30;;;;;19.50;97494.80;;;;110708;1250;41958;-68
2022/03/09 10:27:50;;;;;;;7.20;2.50;;;;;19.34;97494.20;;;;110838;1250;41264;-68
2022/03/09 10:30:36;;;;;;;6.10;2.40;;;;;18.36;97504.60;;;;110944;1250;41648;-68
2022/03/09 10:33:07;;;;;;;5.60;2.20;;;;;16.86;97517.00;;;;110830;1251;41187;-68
2022/03/09 10:35:36;;;;;;;5.90;2.40;;;;;15.62;97518.80;;;;111125;1250;41599;-68
2022/03/09 10:38:28;;;;;;;5.60;2.20;;;;;14.30;97528.40;;;;111007;1250;41140;-68
2022/03/09 10:41:00;;;;;;;6.10;2.10;;;;;13.50;97529.80;;;;111026;1249;41270;-67
2022/03/09 10:43:30;;;;;;;5.60;2.10;;;;;12.40;97529.40;;;;110700;1252;41139;-67
2022/03/09 10:46:05;;;;;;;6.20;2.40;;;;;11.90;97524.80;;;;110911;1250;41270;-68
2022/03/09 10:48:52;;;;;;;4.40;2.00;;;;;11.22;97527.00;;;;110869;1250;41943;-69
2022/03/09 10:51:29;;;;;;;5.70;2.40;;;;;10.40;97536.00;;;;110900;1251;41675;-67
2022/03/09 10:54:03;;;;;;;5.10;2.10;;;;;9.80;97534.80;;;;110931;1250;41938;-67
2022/03/09 10:56:33;;;;;;;6.50;2.40;;;;;9.60;97534.20;;;;110710;1250;41137;-67
2022/03/09 10:59:14;;;;;;;6.00;2.20;;;;;9.82;97511.40;;;;110933;1250;41067;-69
2022/03/09 11:01:44;;;;;;;4.90;2.10;;;;;9.62;97532.20;;;;110858;1251;41795;-68
2022/03/09 11:04:17;;;;;;;7.00;2.60;;;;;8.48;97535.00;;;;110953;1250;41140;-68
2022/03/09 11:06:46;;;;;;;3.70;1.90;;;;;8.24;97547.20;;;;110823;1250;41631;-67
2022/03/09 11:09:16;;;;;;;5.10;2.30;;;;;8.20;97543.40;;;;110943;1250;41202;-67
2022/03/09 11:11:48;;;;;;;7.60;3.00;;;;;8.14;97539.40;;;;110855;1250;41375;-66
2022/03/09 11:14:20;;;;;;;6.60;2.70;;;;;7.86;97539.80;;;;110769;1250;41157;-65
2022/03/09 11:16:49;;;;;;;6.30;2.60;;;;;8.64;97512.40;;;;110883;1249;41143;-67
2022/03/09 11:19:19;;;;;;;7.00;2.40;;;;;10.34;97532.60;;;;110807;1250;41152;-67
2022/03/09 11:21:48;;;;;;;6.00;2.30;;;;;11.12;97527.40;;;;110734;1250;41588;-66
2022/03/09 11:24:20;;;;;;;6.10;2.40;;;;;11.12;97526.60;;;;110616;1251;42461;-67
2022/03/09 11:26:51;;;;;;;8.30;2.40;;;;;11.34;97523.40;;;;110897;1250;41153;-66
2022/03/09 11:29:33;;;;;;;7.60;2.50;;;;;11.38;97524.00;;;;110822;1252;41252;-67
2022/03/09 11:32:04;;;;;;;9.30;2.30;;;;;11.10;97514.20;;;;110853;1250;42301;-67
2022/03/09 11:34:34;;;;;;;;;;;;;14.44;97478.00;;;;110729;1251;41267;-68
2022/03/09 11:37:18;;;;;;;6.60;2.80;;;;;19.40;97461.00;;;;110851;1250;41268;-68
2022/03/09 11:40:08;;;;;;;6.70;2.80;;;;;23.54;97450.80;;;;110824;1250;41160;-68
2022/03/09 11:42:44;;;;;;;6.70;2.40;;;;;27.06;97459.20;;;;110706;1252;41616;-68
2022/03/09 11:45:16;;;;;;;5.10;2.30;;;;;26.32;97469.80;;;;110969;1250;40872;-68
2022/03/09 11:48:01;;;;;;;4.60;2.20;;;;;25.52;97463.40;;;;111066;1250;41156;-68
2022/03/09 11:50:33;;;;;;;5.60;2.20;;;;;25.74;97476.60;;;;110936;1251;41337;-68
2022/03/09 11:53:05;;;;;;;4.60;2.10;;;;;24.94;97474.20;;;;110973;1251;41368;-68
2022/03/09 11:55:35;;;;;;;5.60;2.10;;;;;22.66;97483.20;;;;110684;1250;41387;-68
2022/03/09 11:58:09;;;;;;;4.50;2.20;;;;;19.28;97490.20;;;;110821;1250;42725;-69
2022/03/09 12:00:59;;;;;;;5.70;2.30;;;;;18.02;97510.00;;;;110920;1250;41523;-68
2022/03/09 12:03:41;;;;;;;5.90;2.30;;;;;17.04;97512.80;;;;110838;1252;41267;-69
2022/03/09 12:06:46;;;;;;;5.50;2.30;;;;;14.06;97519.00;;;;110863;1250;41273;-66
2022/03/09 12:09:15;;;;;;;6.80;2.60;;;;;13.40;97524.00;;;;110412;1256;41271;-67
2022/03/09 12:12:10;;;;;;;5.60;2.40;;;;;13.40;97488.20;;;;110394;1256;41165;-68
2022/03/09 12:15:03;;;;;;;6.30;2.40;;;;;18.08;97478.20;;;;110330;1256;41146;-68
2022/03/09 12:17:36;;;;;;;5.60;2.60;;;;;22.94;97471.20;;;;110424;1256;41432;-68
2022/03/09 12:20:23;;;;;;;6.50;2.50;;;;;26.62;97461.40;;;;110341;1255;41153;-68
2022/03/09 12:22:55;;;;;;;5.80;2.40;;;;;29.04;97455.60;;;;110378;1257;41139;-68
2022/03/09 12:25:42;;;;;;;5.40;2.20;;;;;30.00;97485.60;;;;110430;1256;41254;-69